createdAt,value
2019-02-27T00:00:56.729Z,23.41
2019-02-27T00:01:56.722Z,23.32
2019-02-27T00:02:56.739Z,23.37
2019-02-27T00:03:56.711Z,23.37
2019-02-27T00:04:56.706Z,23.42
2019-02-27T00:05:56.674Z,23.35
2019-02-27T00:06:56.671Z,23.34
2019-02-27T00:07:56.649Z,23.38
2019-02-27T00:08:57.829Z,23.37
2019-02-27T00:09:56.637Z,23.41
2019-02-27T00:10:56.616Z,23.34
2019-02-27T00:11:56.605Z,23.34
2019-02-27T00:12:56.622Z,23.42
2019-02-27T00:13:57.983Z,23.34
2019-02-27T00:14:56.581Z,23.41
2019-02-27T00:15:56.572Z,23.40
2019-02-27T00:16:56.554Z,23.34
2019-02-27T00:17:56.564Z,23.32
2019-02-27T00:18:58.837Z,23.40
2019-02-27T00:19:56.578Z,23.41
2019-02-27T00:20:56.515Z,23.35
2019-02-27T00:21:56.489Z,23.25
2019-02-27T00:22:56.492Z,23.38
2019-02-27T00:23:56.945Z,23.35
2019-02-27T00:24:56.468Z,23.38
2019-02-27T00:25:56.447Z,23.34
2019-02-27T00:26:56.464Z,23.37
2019-02-27T00:27:56.425Z,23.37
2019-02-27T00:28:56.742Z,23.29
2019-02-27T00:29:56.415Z,23.32
2019-02-27T00:30:56.391Z,23.37
2019-02-27T00:31:56.389Z,23.28
2019-02-27T00:32:56.367Z,23.38
2019-02-27T00:33:59.463Z,23.29
2019-02-27T00:34:56.368Z,23.34
2019-02-27T00:35:56.332Z,23.34
2019-02-27T00:36:56.406Z,23.32
2019-02-27T00:37:56.318Z,23.28
2019-02-27T00:38:57.929Z,23.32
2019-02-27T00:39:56.302Z,23.28
2019-02-27T00:40:56.300Z,23.32
2019-02-27T00:41:56.266Z,23.28
2019-02-27T00:42:56.259Z,23.29
2019-02-27T00:43:56.296Z,23.34
2019-02-27T00:44:56.249Z,23.37
2019-02-27T00:45:56.221Z,23.28
2019-02-27T00:46:56.258Z,23.34
2019-02-27T00:47:56.202Z,23.35
2019-02-27T00:48:59.019Z,23.28
2019-02-27T00:49:56.192Z,23.29
2019-02-27T00:50:56.188Z,23.25
2019-02-27T00:51:56.175Z,23.28
2019-02-27T00:52:56.143Z,23.25
2019-02-27T00:53:58.301Z,23.28
2019-02-27T00:54:56.192Z,23.26
2019-02-27T00:55:56.108Z,23.28
2019-02-27T00:56:56.115Z,23.29
2019-02-27T00:57:56.088Z,23.32
2019-02-27T00:58:59.895Z,23.28
2019-02-27T00:59:56.097Z,23.24
2019-02-27T01:00:56.056Z,23.24
2019-02-27T01:01:56.043Z,23.29
2019-02-27T01:02:56.064Z,23.26
2019-02-27T01:03:59.264Z,23.32
2019-02-27T01:04:57.026Z,23.26
2019-02-27T01:05:55.999Z,23.26
2019-02-27T01:06:55.992Z,23.28
2019-02-27T01:07:55.986Z,23.28
2019-02-27T01:08:55.988Z,23.25
2019-02-27T01:09:55.962Z,23.28
2019-02-27T01:10:55.946Z,23.28
2019-02-27T01:11:55.929Z,23.25
2019-02-27T01:12:58.193Z,23.26
2019-02-27T01:13:55.944Z,23.22
2019-02-27T01:14:55.923Z,23.32
2019-02-27T01:15:55.886Z,23.24
2019-02-27T01:16:55.872Z,23.29
2019-02-27T01:17:57.533Z,23.32
2019-02-27T01:18:55.852Z,23.29
2019-02-27T01:19:55.859Z,23.29
2019-02-27T01:20:55.859Z,23.25
2019-02-27T01:21:55.820Z,23.24
2019-02-27T01:22:55.805Z,23.18
2019-02-27T01:23:55.797Z,23.25
2019-02-27T01:24:55.797Z,23.15
2019-02-27T01:25:56.874Z,23.28
2019-02-27T01:26:55.782Z,23.26
2019-02-27T01:27:55.751Z,23.16
2019-02-27T01:28:55.740Z,23.29
2019-02-27T01:29:55.781Z,23.26
2019-02-27T01:30:55.728Z,23.25
2019-02-27T01:31:57.628Z,23.24
2019-02-27T01:32:55.694Z,23.25
2019-02-27T01:33:55.680Z,23.28
2019-02-27T01:34:55.681Z,23.29
2019-02-27T01:35:55.685Z,23.21
2019-02-27T01:36:58.049Z,23.25
2019-02-27T01:37:55.638Z,23.35
2019-02-27T01:38:55.631Z,23.34
2019-02-27T01:39:55.613Z,23.29
2019-02-27T01:40:55.616Z,23.26
2019-02-27T01:41:57.907Z,23.32
2019-02-27T01:42:55.583Z,23.26
2019-02-27T01:43:55.570Z,23.29
2019-02-27T01:44:55.578Z,23.16
2019-02-27T01:45:55.562Z,23.26
2019-02-27T01:46:55.543Z,23.32
2019-02-27T01:47:55.529Z,23.29
2019-02-27T01:48:55.580Z,23.26
2019-02-27T01:49:55.557Z,23.15
2019-02-27T01:50:55.838Z,23.26
2019-02-27T01:51:55.481Z,23.19
2019-02-27T01:52:55.484Z,23.15
2019-02-27T01:53:55.471Z,23.28
2019-02-27T01:54:55.447Z,23.16
2019-02-27T01:55:56.378Z,23.16
2019-02-27T01:56:55.424Z,23.15
2019-02-27T01:57:55.416Z,23.18
2019-02-27T01:58:55.403Z,23.26
2019-02-27T01:59:55.406Z,23.15
2019-02-27T02:00:56.251Z,23.14
2019-02-27T02:01:55.474Z,23.15
2019-02-27T02:02:55.362Z,23.12
2019-02-27T02:03:55.346Z,23.22
2019-02-27T02:04:55.411Z,23.28
2019-02-27T02:05:58.763Z,23.10
2019-02-27T02:06:55.325Z,23.29
2019-02-27T02:07:55.303Z,23.19
2019-02-27T02:08:55.353Z,23.12
2019-02-27T02:09:55.844Z,23.24
2019-02-27T02:10:55.288Z,23.22
2019-02-27T02:11:55.271Z,23.18
2019-02-27T02:12:55.276Z,23.10
2019-02-27T02:13:55.235Z,23.19
2019-02-27T02:14:55.263Z,23.16
2019-02-27T02:15:55.228Z,23.12
2019-02-27T02:16:55.213Z,23.16
2019-02-27T02:17:55.215Z,23.22
2019-02-27T02:18:55.185Z,23.12
2019-02-27T02:19:55.253Z,23.14
2019-02-27T02:20:55.180Z,23.19
2019-02-27T02:21:55.161Z,23.18
2019-02-27T02:22:55.161Z,23.19
2019-02-27T02:23:55.205Z,23.16
2019-02-27T02:24:55.148Z,23.09
2019-02-27T02:25:55.129Z,23.25
2019-02-27T02:26:55.093Z,23.15
2019-02-27T02:27:55.083Z,23.14
2019-02-27T02:28:55.074Z,23.14
2019-02-27T02:29:55.057Z,23.14
2019-02-27T02:30:55.045Z,23.19
2019-02-27T02:31:55.224Z,23.18
2019-02-27T02:32:55.033Z,23.15
2019-02-27T02:33:55.011Z,23.19
2019-02-27T02:34:55.007Z,23.19
2019-02-27T02:35:55.015Z,23.15
2019-02-27T02:37:01.230Z,23.16
2019-02-27T02:37:55.966Z,23.12
2019-02-27T02:38:54.960Z,23.19
2019-02-27T02:39:55.355Z,23.19
2019-02-27T02:40:54.932Z,23.15
2019-02-27T02:41:54.934Z,23.14
2019-02-27T02:42:54.909Z,23.19
2019-02-27T02:43:54.899Z,23.19
2019-02-27T02:44:57.681Z,23.21
2019-02-27T02:45:54.906Z,23.19
2019-02-27T02:46:54.896Z,23.18
2019-02-27T02:47:55.898Z,23.19
2019-02-27T02:48:54.852Z,23.10
2019-02-27T02:49:54.833Z,23.19
2019-02-27T02:50:55.098Z,23.15
2019-02-27T02:51:54.823Z,23.19
2019-02-27T02:52:54.843Z,23.19
2019-02-27T02:54:00.339Z,23.24
2019-02-27T02:54:55.773Z,23.15
2019-02-27T02:55:54.764Z,23.10
2019-02-27T02:57:00.138Z,23.10
2019-02-27T02:57:55.738Z,23.16
2019-02-27T02:58:54.741Z,23.26
2019-02-27T02:59:59.430Z,23.19
2019-02-27T03:00:55.714Z,23.15
2019-02-27T03:01:54.714Z,23.18
2019-02-27T03:02:57.698Z,23.14
2019-02-27T03:03:55.685Z,23.16
2019-02-27T03:04:54.670Z,23.14
2019-02-27T03:05:58.673Z,23.14
2019-02-27T03:06:54.654Z,23.12
2019-02-27T03:07:54.646Z,23.16
2019-02-27T03:08:55.258Z,23.15
2019-02-27T03:09:54.627Z,23.15
2019-02-27T03:10:54.598Z,23.09
2019-02-27T03:11:55.777Z,23.15
2019-02-27T03:12:54.577Z,23.10
2019-02-27T03:13:54.570Z,23.04
2019-02-27T03:14:54.648Z,23.12
2019-02-27T03:15:54.558Z,23.07
2019-02-27T03:16:54.556Z,23.14
2019-02-27T03:17:55.147Z,23.15
2019-02-27T03:18:54.505Z,23.10
2019-02-27T03:19:54.493Z,23.06
2019-02-27T03:20:54.505Z,23.09
2019-02-27T03:21:54.484Z,23.07
2019-02-27T03:22:54.472Z,23.16
2019-02-27T03:23:54.453Z,23.18
2019-02-27T03:24:54.456Z,23.10
2019-02-27T03:25:54.423Z,23.18
2019-02-27T03:26:54.416Z,23.10
2019-02-27T03:27:54.502Z,23.10
2019-02-27T03:28:54.391Z,23.12
2019-02-27T03:29:54.404Z,23.07
2019-02-27T03:30:54.368Z,23.10
2019-02-27T03:31:59.965Z,23.12
2019-02-27T03:32:55.361Z,23.04
2019-02-27T03:34:05.750Z,23.07
2019-02-27T03:34:55.345Z,23.07
2019-02-27T03:35:54.316Z,23.19
2019-02-27T03:36:54.300Z,23.09
2019-02-27T03:37:54.308Z,23.09
2019-02-27T03:38:55.877Z,23.12
2019-02-27T03:39:54.267Z,23.14
2019-02-27T03:40:54.263Z,23.06
2019-02-27T03:41:58.261Z,23.09
2019-02-27T03:42:55.258Z,23.14
2019-02-27T03:43:54.233Z,23.04
2019-02-27T03:44:56.245Z,23.10
2019-02-27T03:45:54.203Z,23.15
2019-02-27T03:46:54.195Z,23.14
2019-02-27T03:47:54.195Z,23.09
2019-02-27T03:48:54.167Z,23.07
2019-02-27T03:49:54.154Z,23.07
2019-02-27T03:50:54.174Z,23.15
2019-02-27T03:51:59.606Z,23.09
2019-02-27T03:52:55.175Z,23.10
2019-02-27T03:53:54.109Z,23.09
2019-02-27T03:54:57.977Z,23.16
2019-02-27T03:55:54.090Z,23.09
2019-02-27T03:56:54.076Z,23.10
2019-02-27T03:57:55.283Z,23.15
2019-02-27T03:58:54.059Z,23.15
2019-02-27T03:59:54.070Z,23.18
2019-02-27T04:00:54.242Z,23.12
2019-02-27T04:01:54.021Z,23.12
2019-02-27T04:02:54.019Z,23.07
2019-02-27T04:03:55.319Z,23.16
2019-02-27T04:04:53.987Z,23.10
2019-02-27T04:05:53.974Z,23.10
2019-02-27T04:06:56.470Z,23.14
2019-02-27T04:07:53.981Z,23.14
2019-02-27T04:08:53.951Z,23.06
2019-02-27T04:09:55.393Z,23.14
2019-02-27T04:10:53.917Z,23.06
2019-02-27T04:11:53.905Z,23.14
2019-02-27T04:12:53.920Z,23.07
2019-02-27T04:13:53.884Z,23.16
2019-02-27T04:14:53.882Z,23.15
2019-02-27T04:15:54.453Z,23.12
2019-02-27T04:16:53.854Z,23.14
2019-02-27T04:17:53.899Z,23.12
2019-02-27T04:18:53.855Z,23.12
2019-02-27T04:19:53.836Z,23.12
2019-02-27T04:20:53.810Z,23.14
2019-02-27T04:21:53.832Z,23.09
2019-02-27T04:22:53.811Z,23.14
2019-02-27T04:23:53.784Z,23.12
2019-02-27T04:24:56.806Z,23.09
2019-02-27T04:25:53.755Z,23.12
2019-02-27T04:26:53.739Z,23.07
2019-02-27T04:27:55.667Z,23.10
2019-02-27T04:28:53.727Z,23.03
2019-02-27T04:29:53.722Z,23.09
2019-02-27T04:30:53.714Z,23.12
2019-02-27T04:31:53.691Z,23.14
2019-02-27T04:32:53.673Z,23.04
2019-02-27T04:33:53.678Z,23.12
2019-02-27T04:34:53.648Z,23.10
2019-02-27T04:35:53.649Z,23.10
2019-02-27T04:36:53.631Z,23.07
2019-02-27T04:37:54.302Z,23.14
2019-02-27T04:38:53.615Z,23.04
2019-02-27T04:39:53.590Z,23.04
2019-02-27T04:40:53.583Z,23.10
2019-02-27T04:41:53.575Z,23.04
2019-02-27T04:42:53.591Z,23.06
2019-02-27T04:43:53.575Z,23.03
2019-02-27T04:44:53.535Z,23.09
2019-02-27T04:45:53.530Z,23.03
2019-02-27T04:46:55.067Z,23.09
2019-02-27T04:47:53.504Z,23.09
2019-02-27T04:48:53.529Z,23.06
2019-02-27T04:49:53.490Z,23.04
2019-02-27T04:50:53.545Z,23.07
2019-02-27T04:51:53.477Z,23.12
2019-02-27T04:52:57.660Z,23.01
2019-02-27T04:53:53.469Z,23.03
2019-02-27T04:54:53.459Z,23.06
2019-02-27T04:55:53.427Z,23.04
2019-02-27T04:56:55.049Z,23.04
2019-02-27T04:57:53.394Z,23.06
2019-02-27T04:58:53.399Z,23.09
2019-02-27T04:59:53.373Z,23.01
2019-02-27T05:00:53.357Z,23.03
2019-02-27T05:01:53.437Z,23.09
2019-02-27T05:02:54.077Z,23.03
2019-02-27T05:03:53.333Z,23.00
2019-02-27T05:04:53.310Z,22.96
2019-02-27T05:05:53.306Z,23.04
2019-02-27T05:06:53.297Z,22.97
2019-02-27T05:07:54.361Z,22.89
2019-02-27T05:08:53.296Z,22.92
2019-02-27T05:09:53.254Z,23.03
2019-02-27T05:10:53.252Z,23.03
2019-02-27T05:11:53.247Z,23.06
2019-02-27T05:12:53.220Z,23.01
2019-02-27T05:13:54.387Z,23.01
2019-02-27T05:14:53.202Z,23.07
2019-02-27T05:15:53.194Z,22.99
2019-02-27T05:16:53.198Z,23.01
2019-02-27T05:17:55.623Z,23.07
2019-02-27T05:18:53.195Z,23.00
2019-02-27T05:19:53.141Z,23.01
2019-02-27T05:20:53.129Z,23.00
2019-02-27T05:21:53.181Z,23.00
2019-02-27T05:22:53.126Z,22.97
2019-02-27T05:23:53.098Z,23.00
2019-02-27T05:24:53.104Z,23.04
2019-02-27T05:25:53.072Z,23.09
2019-02-27T05:26:53.062Z,22.99
2019-02-27T05:27:53.052Z,22.86
2019-02-27T05:28:53.040Z,22.96
2019-02-27T05:29:53.063Z,22.97
2019-02-27T05:30:53.016Z,22.88
2019-02-27T05:31:53.922Z,23.01
2019-02-27T05:32:53.000Z,23.06
2019-02-27T05:33:52.987Z,23.01
2019-02-27T05:34:52.995Z,22.88
2019-02-27T05:35:56.993Z,22.88
2019-02-27T05:36:52.956Z,23.07
2019-02-27T05:37:52.940Z,22.96
2019-02-27T05:38:52.926Z,22.94
2019-02-27T05:39:52.936Z,22.89
2019-02-27T05:40:52.908Z,22.89
2019-02-27T05:41:52.892Z,22.99
2019-02-27T05:42:52.897Z,22.99
2019-02-27T05:43:52.877Z,22.91
2019-02-27T05:44:55.481Z,22.97
2019-02-27T05:45:52.849Z,22.92
2019-02-27T05:46:52.836Z,22.91
2019-02-27T05:47:52.826Z,22.97
2019-02-27T05:48:53.343Z,22.94
2019-02-27T05:49:52.831Z,22.88
2019-02-27T05:50:52.794Z,22.92
2019-02-27T05:51:52.781Z,22.97
2019-02-27T05:52:52.774Z,22.96
2019-02-27T05:53:52.758Z,22.96
2019-02-27T05:54:52.760Z,22.97
2019-02-27T05:55:52.747Z,22.86
2019-02-27T05:56:52.735Z,22.91
2019-02-27T05:57:52.715Z,23.04
2019-02-27T05:58:55.895Z,22.89
2019-02-27T05:59:52.702Z,22.85
2019-02-27T06:00:52.683Z,22.99
2019-02-27T06:01:52.668Z,22.89
2019-02-27T06:02:52.677Z,22.89
2019-02-27T06:03:53.011Z,22.91
2019-02-27T06:04:52.658Z,22.91
2019-02-27T06:05:52.632Z,22.92
2019-02-27T06:06:52.623Z,22.97
2019-02-27T06:07:52.628Z,22.88
2019-02-27T06:08:52.589Z,22.99
2019-02-27T06:09:52.615Z,23.00
2019-02-27T06:10:56.046Z,22.92
2019-02-27T06:11:52.554Z,22.86
2019-02-27T06:12:52.545Z,22.92
2019-02-27T06:13:52.533Z,22.92
2019-02-27T06:14:54.815Z,22.96
2019-02-27T06:15:52.529Z,22.91
2019-02-27T06:16:52.509Z,22.89
2019-02-27T06:17:52.492Z,22.92
2019-02-27T06:18:56.067Z,22.94
2019-02-27T06:19:52.488Z,22.92
2019-02-27T06:20:52.461Z,22.89
2019-02-27T06:21:56.120Z,22.92
2019-02-27T06:22:52.432Z,22.92
2019-02-27T06:23:52.425Z,22.89
2019-02-27T06:24:52.791Z,22.91
2019-02-27T06:25:52.430Z,22.97
2019-02-27T06:26:52.389Z,22.92
2019-02-27T06:27:52.392Z,22.94
2019-02-27T06:28:52.374Z,22.94
2019-02-27T06:29:56.647Z,22.81
2019-02-27T06:30:52.348Z,22.89
2019-02-27T06:31:52.330Z,22.86
2019-02-27T06:32:52.321Z,22.89
2019-02-27T06:33:52.353Z,22.91
2019-02-27T06:34:52.310Z,22.94
2019-02-27T06:35:52.286Z,22.89
2019-02-27T06:36:52.275Z,22.84
2019-02-27T06:37:52.268Z,22.94
2019-02-27T06:38:52.264Z,22.88
2019-02-27T06:39:54.144Z,22.89
2019-02-27T06:40:52.255Z,22.88
2019-02-27T06:41:52.221Z,22.92
2019-02-27T06:42:53.881Z,22.92
2019-02-27T06:43:52.198Z,22.91
2019-02-27T06:44:52.185Z,22.88
2019-02-27T06:45:54.159Z,22.88
2019-02-27T06:46:53.754Z,22.86
2019-02-27T06:47:52.157Z,22.91
2019-02-27T06:48:52.140Z,22.88
2019-02-27T06:49:52.577Z,22.89
2019-02-27T06:50:52.131Z,22.88
2019-02-27T06:51:52.107Z,22.91
2019-02-27T06:52:52.099Z,22.91
2019-02-27T06:53:52.108Z,22.89
2019-02-27T06:54:52.834Z,22.89
2019-02-27T06:55:52.073Z,22.88
2019-02-27T06:56:52.066Z,22.88
2019-02-27T06:57:52.048Z,22.88
2019-02-27T06:58:52.029Z,22.89
2019-02-27T06:59:52.019Z,22.91
2019-02-27T07:00:52.063Z,22.88
2019-02-27T07:01:52.004Z,22.89
2019-02-27T07:02:55.258Z,22.89
2019-02-27T07:03:51.971Z,22.85
2019-02-27T07:04:51.975Z,22.94
2019-02-27T07:05:51.964Z,22.91
2019-02-27T07:06:55.211Z,22.92
2019-02-27T07:07:51.930Z,22.89
2019-02-27T07:08:51.915Z,22.91
2019-02-27T07:09:51.904Z,22.88
2019-02-27T07:10:51.913Z,22.91
2019-02-27T07:11:51.881Z,22.86
2019-02-27T07:12:54.399Z,22.88
2019-02-27T07:13:51.862Z,22.88
2019-02-27T07:14:51.846Z,22.84
2019-02-27T07:15:51.870Z,22.88
2019-02-27T07:16:51.827Z,22.89
2019-02-27T07:17:51.870Z,22.85
2019-02-27T07:18:51.810Z,22.82
2019-02-27T07:19:51.791Z,22.82
2019-02-27T07:20:51.790Z,22.91
2019-02-27T07:21:51.784Z,22.88
2019-02-27T07:22:51.786Z,22.85
2019-02-27T07:23:51.750Z,22.88
2019-02-27T07:24:51.747Z,22.85
2019-02-27T07:25:51.738Z,22.88
2019-02-27T07:26:51.724Z,22.89
2019-02-27T07:27:51.701Z,22.91
2019-02-27T07:28:51.691Z,22.88
2019-02-27T07:29:51.688Z,22.88
2019-02-27T07:30:51.700Z,22.88
2019-02-27T07:31:52.115Z,22.84
2019-02-27T07:32:51.646Z,22.91
2019-02-27T07:33:51.636Z,22.85
2019-02-27T07:34:51.645Z,22.85
2019-02-27T07:35:51.621Z,22.86
2019-02-27T07:36:51.604Z,22.82
2019-02-27T07:37:51.645Z,22.85
2019-02-27T07:38:54.281Z,22.88
2019-02-27T07:39:52.563Z,22.82
2019-02-27T07:40:51.567Z,22.85
2019-02-27T07:41:51.544Z,22.86
2019-02-27T07:42:51.535Z,22.88
2019-02-27T07:43:51.519Z,22.91
2019-02-27T07:44:51.520Z,22.89
2019-02-27T07:45:51.511Z,22.88
2019-02-27T07:46:51.489Z,22.85
2019-02-27T07:47:51.494Z,22.91
2019-02-27T07:48:51.466Z,22.89
2019-02-27T07:49:51.459Z,22.88
2019-02-27T07:50:51.468Z,22.92
2019-02-27T07:51:51.435Z,22.96
2019-02-27T07:52:58.445Z,22.85
2019-02-27T07:53:53.761Z,22.88
2019-02-27T07:54:51.398Z,22.89
2019-02-27T07:55:51.401Z,22.89
2019-02-27T07:56:51.374Z,22.94
2019-02-27T07:57:51.383Z,22.85
2019-02-27T07:58:51.353Z,22.92
2019-02-27T07:59:51.341Z,22.94
2019-02-27T08:00:51.372Z,22.91
2019-02-27T08:01:51.320Z,22.92
2019-02-27T08:02:51.306Z,22.89
2019-02-27T08:03:51.336Z,22.86
2019-02-27T08:04:51.682Z,22.91
2019-02-27T08:05:51.307Z,22.94
2019-02-27T08:06:51.296Z,22.94
2019-02-27T08:07:51.495Z,22.94
2019-02-27T08:08:51.248Z,22.85
2019-02-27T08:09:51.240Z,23.03
2019-02-27T08:10:51.241Z,22.88
2019-02-27T08:11:51.237Z,22.91
2019-02-27T08:12:55.601Z,22.82
2019-02-27T08:13:52.195Z,22.92
2019-02-27T08:14:51.180Z,23.01
2019-02-27T08:15:51.193Z,23.00
2019-02-27T08:16:51.173Z,22.94
2019-02-27T08:17:51.169Z,22.89
2019-02-27T08:18:51.137Z,23.04
2019-02-27T08:19:51.124Z,23.00
2019-02-27T08:20:52.134Z,22.99
2019-02-27T08:21:51.141Z,23.03
2019-02-27T08:22:51.089Z,23.04
2019-02-27T08:23:51.090Z,23.06
2019-02-27T08:24:51.070Z,23.00
2019-02-27T08:25:51.057Z,23.06
2019-02-27T08:26:51.058Z,23.06
2019-02-27T08:27:51.036Z,23.06
2019-02-27T08:28:51.041Z,23.14
2019-02-27T08:29:51.015Z,23.03
2019-02-27T08:30:51.008Z,23.06
2019-02-27T08:31:51.002Z,23.09
2019-02-27T08:32:50.978Z,23.10
2019-02-27T08:33:50.974Z,23.04
2019-02-27T08:34:50.963Z,23.16
2019-02-27T08:35:50.944Z,23.09
2019-02-27T08:36:50.977Z,23.09
2019-02-27T08:37:50.922Z,23.12
2019-02-27T08:38:50.910Z,23.09
2019-02-27T08:39:50.899Z,23.10
2019-02-27T08:40:50.891Z,23.16
2019-02-27T08:41:50.894Z,23.12
2019-02-27T08:42:50.921Z,23.10
2019-02-27T08:43:50.873Z,23.12
2019-02-27T08:44:50.844Z,23.09
2019-02-27T08:45:50.835Z,23.14
2019-02-27T08:46:50.841Z,23.10
2019-02-27T08:47:50.810Z,23.12
2019-02-27T08:48:50.802Z,23.09
2019-02-27T08:49:50.788Z,23.09
2019-02-27T08:50:50.785Z,23.06
2019-02-27T08:51:50.787Z,23.07
2019-02-27T08:52:51.800Z,23.09
2019-02-27T08:53:50.742Z,23.14
2019-02-27T08:54:50.731Z,23.10
2019-02-27T08:55:50.720Z,23.07
2019-02-27T08:56:50.740Z,23.09
2019-02-27T08:57:56.000Z,23.12
2019-02-27T08:58:51.686Z,23.09
2019-02-27T08:59:50.697Z,23.04
2019-02-27T09:00:51.851Z,23.06
2019-02-27T09:01:55.350Z,23.10
2019-02-27T09:02:51.652Z,23.16
2019-02-27T09:03:50.643Z,23.19
2019-02-27T09:04:50.621Z,23.15
2019-02-27T09:05:53.664Z,23.14
2019-02-27T09:06:50.623Z,23.10
2019-02-27T09:07:50.588Z,23.12
2019-02-27T09:08:50.612Z,23.14
2019-02-27T09:09:51.664Z,23.07
2019-02-27T09:10:50.553Z,23.14
2019-02-27T09:11:50.584Z,23.18
2019-02-27T09:12:51.825Z,23.16
2019-02-27T09:13:50.539Z,23.15
2019-02-27T09:14:50.513Z,23.16
2019-02-27T09:15:50.520Z,23.15
2019-02-27T09:16:50.534Z,23.04
2019-02-27T09:17:50.472Z,23.10
2019-02-27T09:18:50.470Z,23.15
2019-02-27T09:19:50.464Z,23.10
2019-02-27T09:20:53.264Z,23.22
2019-02-27T09:21:50.471Z,23.19
2019-02-27T09:22:50.416Z,23.19
2019-02-27T09:23:50.514Z,23.16
2019-02-27T09:24:50.395Z,23.18
2019-02-27T09:25:56.990Z,23.16
2019-02-27T09:26:51.394Z,23.16
2019-02-27T09:27:50.364Z,23.19
2019-02-27T09:28:50.354Z,23.18
2019-02-27T09:29:54.396Z,23.21
2019-02-27T09:30:50.347Z,23.18
2019-02-27T09:31:50.980Z,23.15
2019-02-27T09:32:50.333Z,23.16
2019-02-27T09:33:53.149Z,23.18
2019-02-27T09:34:50.282Z,23.15
2019-02-27T09:35:50.275Z,23.19
2019-02-27T09:36:50.275Z,23.15
2019-02-27T09:37:51.329Z,23.15
2019-02-27T09:38:50.281Z,23.16
2019-02-27T09:39:50.227Z,23.18
2019-02-27T09:40:50.214Z,23.15
2019-02-27T09:41:51.230Z,23.14
2019-02-27T09:42:52.860Z,23.19
2019-02-27T09:43:50.196Z,23.14
2019-02-27T09:44:50.168Z,23.19
2019-02-27T09:45:50.159Z,23.15
2019-02-27T09:46:52.463Z,23.19
2019-02-27T09:47:50.134Z,23.15
2019-02-27T09:48:50.133Z,23.15
2019-02-27T09:49:50.112Z,23.18
2019-02-27T09:50:50.101Z,23.21
2019-02-27T09:51:50.090Z,23.14
2019-02-27T09:52:50.116Z,23.07
2019-02-27T09:53:50.067Z,23.22
2019-02-27T09:54:50.078Z,23.15
2019-02-27T09:55:53.414Z,23.16
2019-02-27T09:56:50.035Z,23.19
2019-02-27T09:57:50.039Z,23.16
2019-02-27T09:58:50.049Z,23.18
2019-02-27T09:59:51.170Z,23.16
2019-02-27T10:00:49.992Z,23.16
2019-02-27T10:01:49.981Z,23.12
2019-02-27T10:02:50.008Z,23.10
2019-02-27T10:03:52.026Z,23.15
2019-02-27T10:04:49.946Z,23.16
2019-02-27T10:05:49.967Z,23.15
2019-02-27T10:06:49.927Z,23.18
2019-02-27T10:07:51.341Z,23.22
2019-02-27T10:08:49.900Z,23.26
2019-02-27T10:09:49.930Z,23.16
2019-02-27T10:10:49.876Z,23.16
2019-02-27T10:11:52.188Z,23.12
2019-02-27T10:12:49.868Z,23.16
2019-02-27T10:13:49.844Z,23.14
2019-02-27T10:14:50.237Z,23.26
2019-02-27T10:16:00.597Z,23.15
2019-02-27T10:16:49.819Z,23.22
2019-02-27T10:17:49.829Z,23.25
2019-02-27T10:18:49.797Z,23.28
2019-02-27T10:19:49.795Z,23.21
2019-02-27T10:20:49.763Z,23.29
2019-02-27T10:21:49.755Z,23.24
2019-02-27T10:22:49.759Z,23.28
2019-02-27T10:23:49.765Z,23.26
2019-02-27T10:24:49.720Z,23.26
2019-02-27T10:25:50.016Z,23.25
2019-02-27T10:26:49.725Z,23.32
2019-02-27T10:27:49.701Z,23.25
2019-02-27T10:28:49.685Z,23.24
2019-02-27T10:29:49.678Z,23.25
2019-02-27T10:30:50.123Z,23.34
2019-02-27T10:31:49.642Z,23.32
2019-02-27T10:32:49.653Z,23.32
2019-02-27T10:33:49.636Z,23.29
2019-02-27T10:34:51.025Z,23.41
2019-02-27T10:35:49.596Z,23.41
2019-02-27T10:36:49.645Z,23.29
2019-02-27T10:37:50.754Z,23.34
2019-02-27T10:38:49.563Z,23.34
2019-02-27T10:39:49.577Z,23.41
2019-02-27T10:40:49.573Z,23.38
2019-02-27T10:41:50.595Z,23.42
2019-02-27T10:42:50.341Z,23.34
2019-02-27T10:43:49.508Z,23.32
2019-02-27T10:44:49.497Z,23.42
2019-02-27T10:45:49.516Z,23.40
2019-02-27T10:46:49.472Z,23.32
2019-02-27T10:47:49.500Z,23.41
2019-02-27T10:48:49.464Z,23.37
2019-02-27T10:49:49.452Z,23.40
2019-02-27T10:50:49.434Z,23.35
2019-02-27T10:51:49.444Z,23.35
2019-02-27T10:52:50.199Z,23.38
2019-02-27T10:53:50.382Z,23.38
2019-02-27T10:54:49.385Z,23.38
2019-02-27T10:55:50.049Z,23.44
2019-02-27T10:56:49.364Z,23.34
2019-02-27T10:57:49.354Z,23.34
2019-02-27T10:58:49.351Z,23.40
2019-02-27T10:59:49.350Z,23.40
2019-02-27T11:00:49.319Z,23.37
2019-02-27T11:01:49.307Z,23.48
2019-02-27T11:02:52.265Z,23.47
2019-02-27T11:03:49.311Z,23.48
2019-02-27T11:04:50.048Z,23.41
2019-02-27T11:05:52.355Z,23.50
2019-02-27T11:06:50.276Z,23.52
2019-02-27T11:07:50.124Z,23.50
2019-02-27T11:08:49.243Z,23.48
2019-02-27T11:09:49.257Z,23.47
2019-02-27T11:10:49.206Z,23.57
2019-02-27T11:11:53.703Z,23.55
2019-02-27T11:12:49.199Z,23.50
2019-02-27T11:13:52.123Z,23.52
2019-02-27T11:14:50.159Z,23.50
2019-02-27T11:15:49.162Z,23.56
2019-02-27T11:16:49.150Z,23.55
2019-02-27T11:17:49.133Z,23.57
2019-02-27T11:18:49.139Z,23.53
2019-02-27T11:19:49.105Z,23.52
2019-02-27T11:20:49.094Z,23.53
2019-02-27T11:21:49.082Z,23.56
2019-02-27T11:22:49.073Z,23.57
2019-02-27T11:23:49.093Z,23.57
2019-02-27T11:24:49.443Z,23.55
2019-02-27T11:25:49.062Z,23.53
2019-02-27T11:26:49.074Z,23.60
2019-02-27T11:27:49.016Z,23.64
2019-02-27T11:28:49.022Z,23.67
2019-02-27T11:29:48.992Z,23.67
2019-02-27T11:30:51.012Z,23.71
2019-02-27T11:31:48.998Z,23.64
2019-02-27T11:32:48.959Z,23.72
2019-02-27T11:33:48.980Z,23.70
2019-02-27T11:34:49.230Z,23.67
2019-02-27T11:35:48.926Z,23.62
2019-02-27T11:36:48.918Z,23.74
2019-02-27T11:37:48.923Z,23.71
2019-02-27T11:38:48.969Z,23.71
2019-02-27T11:39:48.882Z,23.82
2019-02-27T11:40:48.870Z,23.79
2019-02-27T11:41:49.143Z,23.78
2019-02-27T11:42:48.852Z,23.75
2019-02-27T11:43:48.883Z,23.79
2019-02-27T11:44:49.739Z,23.81
2019-02-27T11:45:48.814Z,23.84
2019-02-27T11:46:58.437Z,23.75
2019-02-27T11:47:49.807Z,23.85
2019-02-27T11:48:48.810Z,23.84
2019-02-27T11:49:48.781Z,23.87
2019-02-27T11:50:48.759Z,23.87
2019-02-27T11:51:50.608Z,23.84
2019-02-27T11:52:49.314Z,23.87
2019-02-27T11:53:48.727Z,23.84
2019-02-27T11:54:48.764Z,23.89
2019-02-27T11:55:48.710Z,23.84
2019-02-27T11:56:51.112Z,23.89
2019-02-27T11:57:49.684Z,23.89
2019-02-27T11:58:48.673Z,23.81
2019-02-27T11:59:48.678Z,23.93
2019-02-27T12:00:48.676Z,23.90
2019-02-27T12:01:48.636Z,23.85
2019-02-27T12:02:48.675Z,23.93
2019-02-27T12:03:48.617Z,23.82
2019-02-27T12:04:48.616Z,23.93
2019-02-27T12:05:48.597Z,23.87
2019-02-27T12:06:48.581Z,23.90
2019-02-27T12:07:51.296Z,23.94
2019-02-27T12:08:48.558Z,23.96
2019-02-27T12:09:48.580Z,23.93
2019-02-27T12:10:48.539Z,23.93
2019-02-27T12:11:49.405Z,23.96
2019-02-27T12:12:48.515Z,24.02
2019-02-27T12:13:48.502Z,23.97
2019-02-27T12:14:48.532Z,23.97
2019-02-27T12:15:48.489Z,23.99
2019-02-27T12:16:51.527Z,23.97
2019-02-27T12:17:48.460Z,24.03
2019-02-27T12:18:48.448Z,23.96
2019-02-27T12:19:48.468Z,24.03
2019-02-27T12:20:53.253Z,23.99
2019-02-27T12:21:49.418Z,23.94
2019-02-27T12:22:48.405Z,24.04
2019-02-27T12:23:48.430Z,23.96
2019-02-27T12:24:50.354Z,24.04
2019-02-27T12:25:48.381Z,24.04
2019-02-27T12:26:48.364Z,24.08
2019-02-27T12:27:49.668Z,24.07
2019-02-27T12:28:52.506Z,24.09
2019-02-27T12:29:48.324Z,24.07
2019-02-27T12:30:48.341Z,24.08
2019-02-27T12:31:48.993Z,24.14
2019-02-27T12:32:48.294Z,24.08
2019-02-27T12:33:48.308Z,24.09
2019-02-27T12:34:48.267Z,24.09
2019-02-27T12:35:48.270Z,24.07
2019-02-27T12:36:49.922Z,24.17
2019-02-27T12:37:48.255Z,24.17
2019-02-27T12:38:48.228Z,24.17
2019-02-27T12:39:49.652Z,24.11
2019-02-27T12:40:48.217Z,24.09
2019-02-27T12:41:48.191Z,24.09
2019-02-27T12:42:49.757Z,24.09
2019-02-27T12:43:52.135Z,24.14
2019-02-27T12:44:48.159Z,24.12
2019-02-27T12:45:48.441Z,24.14
2019-02-27T12:46:48.140Z,24.17
2019-02-27T12:47:48.124Z,24.18
2019-02-27T12:48:48.110Z,24.19
2019-02-27T12:49:48.106Z,24.07
2019-02-27T12:50:48.124Z,24.11
2019-02-27T12:51:48.079Z,24.19
2019-02-27T12:52:48.279Z,24.22